Time;durP1;ratioP1;P1;durP2;ratioP2;P2;SDS_P1;SDS_P2;PMS_P1;PMS_P2;Temp;Humidity;BMP_temperature;BMP_pressure;BME280_temperature;BME280_humidity;BME280_pressure;Samples;Min_cycle;Max_cycle;Signal;HPM_P1;HPM_P2
2022/11/08 00:02:10;;;;;;;5.70;2.70;;;12.40;99.90;;;;;;5076064;28;20446;-60
2022/11/08 00:04:37;;;;;;;5.60;2.80;;;12.40;99.90;;;;;;5076162;28;20439;-54
2022/11/08 00:15:19;;;;;;;10.60;4.03;;;12.30;99.90;;;;;;5075058;28;20403;-59
2022/11/08 00:17:46;;;;;;;9.73;4.07;;;12.30;99.90;;;;;;5074601;28;20447;-59
2022/11/08 00:20:13;;;;;;;5.47;3.03;;;12.30;99.90;;;;;;5074609;28;20861;-58
2022/11/08 00:22:39;;;;;;;11.53;4.67;;;12.30;99.90;;;;;;5074816;28;20449;-58
2022/11/08 00:25:07;;;;;;;8.03;3.07;;;12.30;99.90;;;;;;5074526;28;20443;-62
2022/11/08 00:27:37;;;;;;;7.53;3.57;;;12.20;99.90;;;;;;5076226;28;20443;-56
2022/11/08 00:30:05;;;;;;;6.50;3.37;;;12.20;99.90;;;;;;5079059;28;20416;-59
2022/11/08 00:32:33;;;;;;;4.17;2.47;;;12.10;99.90;;;;;;5078618;28;20477;-57
2022/11/08 00:34:59;;;;;;;3.57;2.67;;;12.10;99.90;;;;;;5078548;28;20448;-58
2022/11/08 00:37:26;;;;;;;3.90;2.10;;;12.10;99.90;;;;;;5078432;28;20463;-63
2022/11/08 00:39:53;;;;;;;6.87;2.20;;;12.00;99.90;;;;;;5078540;28;20470;-60
2022/11/08 00:42:21;;;;;;;2.50;1.80;;;12.00;99.90;;;;;;5078327;28;20450;-61
2022/11/08 00:44:48;;;;;;;3.57;2.30;;;11.90;99.90;;;;;;5077179;28;20474;-59
2022/11/08 00:47:15;;;;;;;5.40;2.10;;;11.90;99.90;;;;;;5077747;28;20450;-59
2022/11/08 00:49:43;;;;;;;2.87;1.70;;;11.90;99.90;;;;;;5077887;28;20470;-53
2022/11/08 00:52:10;;;;;;;4.77;2.17;;;11.90;99.90;;;;;;5078237;28;20430;-58
2022/11/08 00:54:37;;;;;;;2.40;2.20;;;11.90;99.90;;;;;;5078549;28;20445;-58
2022/11/08 00:57:03;;;;;;;4.93;1.70;;;11.90;99.90;;;;;;5077810;28;20494;-59
2022/11/08 00:59:31;;;;;;;3.00;1.87;;;11.90;99.90;;;;;;5077799;28;20475;-57
2022/11/08 01:02:01;;;;;;;2.70;2.03;;;11.80;99.90;;;;;;5077930;28;20521;-58
2022/11/08 01:04:28;;;;;;;3.67;2.47;;;11.80;99.90;;;;;;5078418;28;20499;-58
2022/11/08 01:06:56;;;;;;;12.10;2.23;;;11.80;99.90;;;;;;5077684;28;20469;-56
2022/11/08 01:09:25;;;;;;;3.77;2.13;;;11.80;99.90;;;;;;5077838;28;20443;-57
2022/11/08 01:11:54;;;;;;;7.70;2.80;;;11.70;99.90;;;;;;5077779;28;20524;-59
2022/11/08 01:14:21;;;;;;;3.97;2.40;;;11.70;99.90;;;;;;5115661;23;20496;-58
2022/11/08 01:16:48;;;;;;;4.23;2.03;;;11.70;99.90;;;;;;5093590;28;20757;-61
2022/11/08 01:19:14;;;;;;;3.90;1.93;;;11.70;99.90;;;;;;5097112;28;20534;-58
2022/11/08 01:21:41;;;;;;;6.57;2.93;;;11.70;99.90;;;;;;5091970;28;20537;-58
2022/11/08 01:24:09;;;;;;;8.30;2.90;;;11.70;99.90;;;;;;5091254;28;20443;-59
2022/11/08 01:26:36;;;;;;;6.70;3.23;;;11.70;99.90;;;;;;5097156;28;20459;-53
2022/11/08 01:29:03;;;;;;;11.13;7.03;;;11.70;99.90;;;;;;5087978;28;20479;-58
2022/11/08 01:31:31;;;;;;;5.17;2.50;;;11.70;99.90;;;;;;5094965;28;20457;-54
2022/11/08 01:33:59;;;;;;;4.30;2.80;;;11.70;99.90;;;;;;5096299;28;20449;-60
2022/11/08 01:36:27;;;;;;;2.53;2.03;;;11.70;99.90;;;;;;5095986;28;20467;-54
2022/11/08 01:38:56;;;;;;;4.03;2.43;;;11.70;99.90;;;;;;5096396;28;20506;-57
2022/11/08 01:41:26;;;;;;;4.50;2.23;;;11.70;99.90;;;;;;5095681;28;20454;-57
2022/11/08 01:43:54;;;;;;;2.90;2.70;;;11.60;99.90;;;;;;5097203;28;20437;-56
2022/11/08 01:46:40;;;;;;;5.20;2.50;;;11.60;99.90;;;;;;5096287;28;20447;-60
2022/11/08 01:49:29;;;;;;;7.70;2.93;;;11.60;99.90;;;;;;5097175;28;20430;-58
2022/11/08 01:52:03;;;;;;;2.00;1.70;;;11.60;99.90;;;;;;5088688;28;20470;-54
2022/11/08 01:54:36;;;;;;;6.80;2.70;;;11.60;99.90;;;;;;5098261;28;20418;-51
2022/11/08 01:57:10;;;;;;;2.17;1.93;;;11.60;99.90;;;;;;5097983;28;20466;-60
2022/11/08 01:59:41;;;;;;;1.90;1.70;;;11.60;99.90;;;;;;5098174;28;20532;-57
2022/11/08 02:02:09;;;;;;;3.63;2.77;;;11.60;99.90;;;;;;5088131;28;20428;-60
2022/11/08 02:04:37;;;;;;;3.57;2.20;;;11.60;99.90;;;;;;5086515;28;20498;-59
2022/11/08 02:07:06;;;;;;;3.13;2.10;;;11.70;99.90;;;;;;5096528;28;20525;-60
2022/11/08 02:09:35;;;;;;;4.60;2.03;;;11.70;99.90;;;;;;5096637;28;20472;-59
2022/11/08 02:12:05;;;;;;;3.63;2.30;;;11.70;99.90;;;;;;5095888;28;20435;-55
2022/11/08 02:14:31;;;;;;;4.70;2.37;;;11.70;99.90;;;;;;5095545;28;20454;-58
2022/11/08 02:16:58;;;;;;;9.83;2.80;;;11.80;99.90;;;;;;5093661;28;20446;-58
2022/11/08 02:19:33;;;;;;;3.50;2.73;;;11.80;99.90;;;;;;5088956;28;20482;-59
2022/11/08 02:22:05;;;;;;;2.30;2.10;;;11.80;99.90;;;;;;5087304;28;20640;-55
2022/11/08 02:24:34;;;;;;;3.50;2.00;;;11.80;99.90;;;;;;5095923;28;20441;-59
2022/11/08 02:27:02;;;;;;;8.80;2.40;;;11.80;99.90;;;;;;5095261;28;20489;-60
2022/11/08 02:29:31;;;;;;;5.47;3.67;;;11.80;99.90;;;;;;5095406;28;20435;-60
2022/11/08 02:32:00;;;;;;;4.43;3.67;;;11.80;99.90;;;;;;5094609;28;20514;-61
2022/11/08 02:34:31;;;;;;;4.67;2.70;;;11.80;99.90;;;;;;5095295;28;20497;-57
2022/11/08 02:36:59;;;;;;;8.60;2.33;;;11.80;99.90;;;;;;5095374;28;20537;-57
2022/11/08 02:39:28;;;;;;;6.50;2.00;;;11.70;99.90;;;;;;5095815;28;20486;-58
2022/11/08 02:41:57;;;;;;;2.93;2.63;;;11.70;99.90;;;;;;5095316;28;20447;-57
2022/11/08 02:44:23;;;;;;;3.30;2.63;;;11.70;99.90;;;;;;5095892;28;20494;-56
2022/11/08 02:46:50;;;;;;;5.30;2.60;;;11.70;99.90;;;;;;5096775;28;20501;-53
2022/11/08 02:49:17;;;;;;;4.70;2.47;;;11.70;99.90;;;;;;5096288;28;20441;-59
2022/11/08 02:51:44;;;;;;;3.87;2.50;;;11.70;99.90;;;;;;5095222;28;20466;-58
2022/11/08 02:54:10;;;;;;;5.10;1.93;;;11.70;99.90;;;;;;5085145;28;20498;-56
2022/11/08 02:56:37;;;;;;;2.80;2.00;;;11.70;99.90;;;;;;5096046;28;20524;-58
2022/11/08 02:59:06;;;;;;;10.60;2.90;;;11.70;99.90;;;;;;5094484;28;20492;-58
2022/11/08 03:01:32;;;;;;;3.60;2.53;;;11.70;99.90;;;;;;5094975;28;20449;-58
2022/11/08 03:04:00;;;;;;;8.07;2.60;;;11.70;99.90;;;;;;5095625;28;20489;-54
2022/11/08 03:06:26;;;;;;;3.37;2.13;;;11.70;99.90;;;;;;5095288;28;20510;-55
2022/11/08 03:08:54;;;;;;;3.90;2.70;;;11.70;99.90;;;;;;5095635;28;20501;-59
2022/11/08 03:11:21;;;;;;;3.90;2.80;;;11.70;99.90;;;;;;5097100;28;20430;-55
2022/11/08 03:13:48;;;;;;;3.53;2.30;;;11.70;99.90;;;;;;5096484;28;20446;-54
2022/11/08 03:16:16;;;;;;;4.77;2.83;;;11.70;99.90;;;;;;5095906;28;20445;-54
2022/11/08 03:18:43;;;;;;;2.43;2.23;;;11.60;99.90;;;;;;5095834;28;20454;-63
2022/11/08 03:21:10;;;;;;;6.10;2.70;;;11.60;99.90;;;;;;5095831;28;20438;-57
2022/11/08 03:23:37;;;;;;;8.63;2.40;;;11.60;99.90;;;;;;5096130;28;20502;-55
2022/11/08 03:26:05;;;;;;;3.57;2.90;;;11.60;99.90;;;;;;5095695;28;20439;-54
2022/11/08 03:28:32;;;;;;;3.30;2.53;;;11.60;99.90;;;;;;5095636;28;20454;-55
2022/11/08 03:30:58;;;;;;;8.63;2.50;;;11.60;99.90;;;;;;5095814;28;20460;-59
2022/11/08 03:33:27;;;;;;;3.90;2.37;;;11.60;99.90;;;;;;5096469;28;20427;-53
2022/11/08 03:35:54;;;;;;;10.40;2.70;;;11.70;99.90;;;;;;5096187;28;20495;-52
2022/11/08 03:38:21;;;;;;;5.33;2.73;;;11.70;99.90;;;;;;5095928;28;20449;-55
2022/11/08 03:40:48;;;;;;;5.40;3.97;;;11.70;99.90;;;;;;5095062;28;20475;-59
2022/11/08 03:43:14;;;;;;;10.20;4.10;;;11.70;99.90;;;;;;5095187;28;20434;-57
2022/11/08 03:45:41;;;;;;;6.43;2.83;;;11.70;99.90;;;;;;5085682;28;20449;-59
2022/11/08 03:48:08;;;;;;;3.80;2.80;;;11.70;99.90;;;;;;5095633;28;20486;-54
2022/11/08 03:50:36;;;;;;;7.77;2.70;;;11.70;99.90;;;;;;5095131;28;20510;-54
2022/11/08 03:53:03;;;;;;;4.60;2.53;;;11.70;99.90;;;;;;5094473;28;20450;-58
2022/11/08 03:55:30;;;;;;;13.83;2.83;;;11.70;99.90;;;;;;5094745;28;20549;-59
2022/11/08 03:57:57;;;;;;;6.30;3.13;;;11.60;99.90;;;;;;5093974;28;20518;-60
2022/11/08 04:00:26;;;;;;;5.33;2.63;;;11.60;99.90;;;;;;5093466;28;20482;-58
2022/11/08 04:02:54;;;;;;;6.73;3.37;;;11.50;99.90;;;;;;5095238;28;20442;-60
2022/11/08 04:05:21;;;;;;;3.33;2.43;;;11.50;99.90;;;;;;5098437;28;20472;-60
2022/11/08 04:07:49;;;;;;;3.40;2.60;;;11.50;99.90;;;;;;5098132;28;20438;-61
2022/11/08 04:10:17;;;;;;;3.63;2.40;;;11.40;99.90;;;;;;5097329;28;20438;-56
2022/11/08 04:15:30;;;;;;;4.33;2.63;;;11.40;99.90;;;;;;5097811;28;20470;-65
2022/11/08 04:23:30;;;;;;;5.87;3.27;;;11.20;99.90;;;;;;5099002;28;20453;-59
2022/11/08 04:25:58;;;;;;;9.03;3.13;;;11.20;99.90;;;;;;5099328;28;20438;-54
2022/11/08 04:28:27;;;;;;;3.80;2.33;;;11.30;99.90;;;;;;5098750;28;20470;-60
2022/11/08 04:30:55;;;;;;;4.47;2.97;;;11.10;99.90;;;;;;5099550;28;20485;-62
2022/11/08 04:33:22;;;;;;;3.60;3.03;;;11.20;99.90;;;;;;5099460;28;20478;-62
2022/11/08 04:35:49;;;;;;;3.67;3.07;;;11.20;99.90;;;;;;5100085;28;20542;-58
2022/11/08 04:38:16;;;;;;;5.33;2.27;;;11.20;99.90;;;;;;5099522;28;20466;-58
2022/11/08 04:40:44;;;;;;;3.57;2.37;;;11.20;99.90;;;;;;5097879;28;20505;-61
2022/11/08 04:43:11;;;;;;;4.53;3.17;;;11.10;99.90;;;;;;5097684;28;20441;-58
2022/11/08 04:45:38;;;;;;;3.63;2.50;;;11.10;99.90;;;;;;5097670;28;20454;-56
2022/11/08 04:48:05;;;;;;;4.77;3.27;;;11.10;99.90;;;;;;5096607;28;20450;-60
2022/11/08 04:50:33;;;;;;;6.27;2.50;;;11.00;99.90;;;;;;5088022;28;20430;-52
2022/11/08 04:53:01;;;;;;;9.23;2.70;;;11.00;99.90;;;;;;5097792;28;20510;-59
2022/11/08 04:55:27;;;;;;;5.07;2.90;;;11.00;99.90;;;;;;5097836;28;20518;-55
2022/11/08 04:57:58;;;;;;;3.10;2.40;;;11.00;99.90;;;;;;5096572;28;20446;-56
2022/11/08 05:00:26;;;;;;;5.67;2.70;;;11.00;99.90;;;;;;5096968;28;20482;-56
2022/11/08 05:02:53;;;;;;;4.00;2.80;;;11.00;99.90;;;;;;5097565;28;20533;-55
2022/11/08 05:05:20;;;;;;;3.10;2.40;;;11.00;99.90;;;;;;5096728;28;20554;-59
2022/11/08 05:07:47;;;;;;;6.90;2.63;;;10.90;99.90;;;;;;5096671;28;20473;-56
2022/11/08 05:10:14;;;;;;;4.40;2.73;;;10.90;99.90;;;;;;5096393;28;20429;-57
2022/11/08 05:12:41;;;;;;;3.97;2.60;;;10.80;99.90;;;;;;5096022;28;20450;-56
2022/11/08 05:15:10;;;;;;;9.23;2.60;;;10.80;99.90;;;;;;5096021;28;20450;-57
2022/11/08 05:17:36;;;;;;;3.93;2.53;;;10.80;99.90;;;;;;5096801;28;20454;-53
2022/11/08 05:25:37;;;;;;;3.37;2.10;;;10.80;99.90;;;;;;5096307;28;20491;-54
2022/11/08 05:28:04;;;;;;;4.20;2.87;;;10.70;99.90;;;;;;5096144;28;20431;-58
2022/11/08 05:30:32;;;;;;;5.03;3.00;;;10.70;99.90;;;;;;5095952;28;20477;-54
2022/11/08 05:33:19;;;;;;;2.53;2.10;;;10.70;99.90;;;;;;5096200;28;20452;-59
2022/11/08 05:35:49;;;;;;;7.97;2.90;;;10.60;99.90;;;;;;5096455;28;20467;-59
2022/11/08 05:38:19;;;;;;;4.50;2.67;;;10.50;99.90;;;;;;5096926;28;20462;-58
2022/11/08 05:40:46;;;;;;;11.10;2.70;;;10.50;99.90;;;;;;5096815;28;20506;-59
2022/11/08 05:43:18;;;;;;;3.37;2.30;;;10.50;99.90;;;;;;5097019;28;20501;-61
2022/11/08 05:45:51;;;;;;;6.47;3.10;;;10.50;99.90;;;;;;5096780;28;20442;-55
2022/11/08 05:48:18;;;;;;;9.33;2.37;;;10.50;99.90;;;;;;5087478;28;20968;-58
2022/11/08 05:50:52;;;;;;;2.80;2.20;;;10.50;99.90;;;;;;5097160;28;20499;-61
2022/11/08 05:53:20;;;;;;;4.93;2.00;;;10.40;99.90;;;;;;5096586;28;20965;-57
2022/11/08 05:55:47;;;;;;;3.03;2.33;;;10.40;99.90;;;;;;5096585;28;20451;-67
2022/11/08 05:58:19;;;;;;;2.73;2.53;;;10.40;99.90;;;;;;5096983;28;20439;-56
2022/11/08 06:00:50;;;;;;;6.13;2.00;;;10.40;99.90;;;;;;5096634;28;20490;-57
2022/11/08 06:03:17;;;;;;;3.07;2.50;;;10.40;99.90;;;;;;5096361;28;20438;-55
2022/11/08 06:05:44;;;;;;;4.07;2.20;;;10.40;99.90;;;;;;5096341;28;20431;-55
2022/11/08 06:08:11;;;;;;;2.73;2.47;;;10.40;99.90;;;;;;5095754;28;20443;-61
2022/11/08 06:10:38;;;;;;;4.97;3.20;;;10.40;99.90;;;;;;5095666;28;20443;-59
2022/11/08 06:13:04;;;;;;;3.10;2.00;;;10.40;99.90;;;;;;5095913;28;20467;-57
2022/11/08 06:15:31;;;;;;;7.93;3.13;;;10.40;99.90;;;;;;5096185;28;20444;-50
2022/11/08 06:18:03;;;;;;;8.50;2.80;;;10.40;99.90;;;;;;5096229;28;20438;-49
2022/11/08 06:20:30;;;;;;;5.57;2.23;;;10.40;99.90;;;;;;5095994;28;20463;-51
2022/11/08 06:22:57;;;;;;;5.87;2.97;;;10.40;99.90;;;;;;5095733;28;20447;-52
2022/11/08 06:25:25;;;;;;;7.47;3.40;;;10.50;99.90;;;;;;5095153;28;20595;-48
2022/11/08 06:27:52;;;;;;;2.03;1.80;;;10.50;99.90;;;;;;5095581;28;20457;-48
2022/11/08 06:30:19;;;;;;;4.10;2.60;;;10.60;99.90;;;;;;5095843;28;20423;-52
2022/11/08 06:32:46;;;;;;;4.90;3.07;;;10.60;99.90;;;;;;5095704;28;20431;-49
2022/11/08 06:35:14;;;;;;;5.27;2.60;;;10.70;99.90;;;;;;5091664;28;20462;-49
2022/11/08 06:37:43;;;;;;;6.07;2.93;;;10.70;99.90;;;;;;5095649;28;20491;-51
2022/11/08 06:40:10;;;;;;;5.93;2.27;;;10.70;99.90;;;;;;5089661;28;20471;-46
2022/11/08 06:42:37;;;;;;;4.20;2.50;;;10.70;99.90;;;;;;5095711;28;20471;-52
2022/11/08 06:45:05;;;;;;;3.70;2.87;;;10.70;99.90;;;;;;5090299;28;20502;-49
2022/11/08 06:47:33;;;;;;;3.60;2.33;;;10.80;99.90;;;;;;5076219;28;20458;-45
2022/11/08 06:50:00;;;;;;;2.30;2.10;;;10.80;99.90;;;;;;5085962;28;20534;-42
2022/11/08 06:52:28;;;;;;;3.23;2.93;;;10.80;99.90;;;;;;5075197;28;20467;-48
2022/11/08 06:54:55;;;;;;;9.17;3.77;;;10.80;99.90;;;;;;5075531;28;20436;-46
2022/11/08 06:57:22;;;;;;;5.70;2.63;;;10.80;99.90;;;;;;5075392;28;20466;-45
2022/11/08 06:59:48;;;;;;;5.90;2.00;;;10.80;99.90;;;;;;5075525;28;20930;-54
2022/11/08 07:02:15;;;;;;;7.20;3.00;;;10.90;99.90;;;;;;5075604;28;20503;-48
2022/11/08 07:04:42;;;;;;;8.40;2.20;;;10.90;99.90;;;;;;5065949;28;20446;-49
2022/11/08 07:07:09;;;;;;;3.87;2.67;;;10.90;99.90;;;;;;5078597;28;20454;-43
2022/11/08 07:09:37;;;;;;;4.83;2.93;;;10.90;99.90;;;;;;5092918;28;20494;-48
2022/11/08 07:12:04;;;;;;;5.37;3.20;;;10.90;99.90;;;;;;5085024;28;20459;-50
2022/11/08 07:14:34;;;;;;;8.77;2.90;;;10.90;99.90;;;;;;5089694;28;20495;-48
2022/11/08 07:17:01;;;;;;;8.80;3.90;;;11.00;99.90;;;;;;5080074;28;20446;-53
2022/11/08 07:19:27;;;;;;;9.00;2.40;;;10.90;99.90;;;;;;5088429;28;20450;-49
2022/11/08 07:21:54;;;;;;;10.27;2.90;;;11.00;99.90;;;;;;5082406;28;20509;-50
2022/11/08 07:24:21;;;;;;;4.10;2.20;;;11.00;99.90;;;;;;5095379;28;20442;-47
2022/11/08 07:26:49;;;;;;;4.40;2.57;;;11.00;99.90;;;;;;5075043;28;20502;-52
2022/11/08 07:29:16;;;;;;;3.07;2.87;;;10.90;99.90;;;;;;5087072;28;20454;-53
2022/11/08 07:31:43;;;;;;;3.57;3.03;;;11.00;99.90;;;;;;5073799;28;20440;-50
2022/11/08 07:34:13;;;;;;;10.57;3.30;;;10.90;99.90;;;;;;5083314;28;20503;-47
2022/11/08 07:36:40;;;;;;;2.50;2.13;;;10.90;99.90;;;;;;5085859;28;20466;-51
2022/11/08 07:39:06;;;;;;;6.47;3.27;;;11.00;99.90;;;;;;5094622;28;20471;-47
2022/11/08 07:41:33;;;;;;;7.83;3.43;;;11.00;99.90;;;;;;5094046;28;20539;-50
2022/11/08 07:44:01;;;;;;;4.27;3.03;;;11.10;99.90;;;;;;5086849;28;20511;-50
2022/11/08 07:46:28;;;;;;;7.17;2.77;;;11.10;99.90;;;;;;5086290;28;21037;-51
2022/11/08 07:48:55;;;;;;;9.90;3.43;;;11.20;99.90;;;;;;5087978;28;20446;-46
2022/11/08 07:51:22;;;;;;;3.13;2.50;;;11.30;99.90;;;;;;5093068;28;20557;-55
2022/11/08 07:53:49;;;;;;;10.37;2.70;;;11.30;99.90;;;;;;5095032;28;20446;-48
2022/11/08 07:56:16;;;;;;;7.43;2.40;;;11.30;99.90;;;;;;5094929;28;20438;-52
2022/11/08 07:58:43;;;;;;;3.83;2.70;;;11.30;99.90;;;;;;5094498;28;20480;-52
2022/11/08 08:01:11;;;;;;;2.47;2.27;;;11.40;99.90;;;;;;5084114;28;20474;-54
2022/11/08 08:03:38;;;;;;;5.83;3.00;;;11.40;99.90;;;;;;5094541;28;20478;-51
2022/11/08 08:06:06;;;;;;;4.93;2.63;;;11.40;99.90;;;;;;5094048;28;20442;-50
2022/11/08 08:08:33;;;;;;;3.73;2.60;;;11.50;99.90;;;;;;5094317;28;20443;-51
2022/11/08 08:11:04;;;;;;;4.07;2.90;;;11.60;99.90;;;;;;5094178;28;20446;-49
2022/11/08 08:13:31;;;;;;;4.67;2.97;;;11.60;99.90;;;;;;5094133;28;20438;-54
2022/11/08 08:16:00;;;;;;;9.83;3.33;;;11.70;99.90;;;;;;5094600;28;20497;-53
2022/11/08 08:18:29;;;;;;;6.73;2.63;;;11.80;99.90;;;;;;5094929;28;20439;-49
2022/11/08 08:20:56;;;;;;;3.03;2.67;;;11.90;99.90;;;;;;5094434;28;20493;-48
2022/11/08 08:23:23;;;;;;;4.87;2.30;;;11.90;99.90;;;;;;5095125;28;20491;-45
2022/11/08 08:25:50;;;;;;;5.20;2.13;;;12.00;99.90;;;;;;5094263;28;20443;-50
2022/11/08 08:28:17;;;;;;;3.30;2.63;;;12.00;99.90;;;;;;5094125;28;20490;-58
2022/11/08 08:30:44;;;;;;;5.47;2.63;;;12.00;99.90;;;;;;5094478;28;20441;-51
2022/11/08 08:33:13;;;;;;;5.53;2.23;;;12.10;99.90;;;;;;5093849;28;20464;-50
2022/11/08 08:35:42;;;;;;;3.40;2.70;;;12.10;99.90;;;;;;5094156;28;20439;-50
2022/11/08 08:38:11;;;;;;;2.60;2.00;;;12.20;99.90;;;;;;5094442;28;20469;-47
2022/11/08 08:40:38;;;;;;;6.33;2.40;;;12.20;99.90;;;;;;5093975;28;20470;-43
2022/11/08 08:43:06;;;;;;;4.43;4.03;;;12.30;99.90;;;;;;5094029;28;20450;-48
2022/11/08 08:45:34;;;;;;;3.70;2.57;;;12.40;99.90;;;;;;5093686;28;20492;-51
2022/11/08 08:48:01;;;;;;;5.57;2.63;;;12.50;99.90;;;;;;5094333;28;20460;-49
2022/11/08 08:50:30;;;;;;;3.73;2.33;;;12.60;99.90;;;;;;5098744;28;20436;-48
2022/11/08 08:52:59;;;;;;;3.70;2.63;;;12.70;99.90;;;;;;5098516;28;20501;-50
2022/11/08 08:55:27;;;;;;;5.80;2.23;;;12.80;99.90;;;;;;5098248;28;20438;-50
2022/11/08 08:57:54;;;;;;;4.13;2.00;;;12.90;99.90;;;;;;5098237;28;20593;-51
2022/11/08 09:00:22;;;;;;;2.87;2.23;;;13.10;99.90;;;;;;5097908;28;20427;-50
2022/11/08 09:02:49;;;;;;;3.00;2.30;;;13.20;99.90;;;;;;5097771;28;20434;-51
2022/11/08 09:05:23;;;;;;;4.47;2.50;;;13.30;99.90;;;;;;5097606;28;20434;-50
2022/11/08 09:07:54;;;;;;;2.43;2.00;;;13.50;99.90;;;;;;5098026;28;20438;-48
2022/11/08 09:10:25;;;;;;;5.93;2.40;;;13.60;99.90;;;;;;5097590;28;20461;-47
2022/11/08 09:12:52;;;;;;;6.47;2.77;;;13.80;99.90;;;;;;5097188;28;20430;-48
2022/11/08 09:15:19;;;;;;;5.83;1.77;;;13.90;99.90;;;;;;5096337;28;20453;-51
2022/11/08 09:17:46;;;;;;;4.30;2.30;;;14.10;99.90;;;;;;5096758;28;20438;-49
2022/11/08 09:20:14;;;;;;;5.67;2.33;;;14.30;99.90;;;;;;5096820;28;20430;-53
2022/11/08 09:22:42;;;;;;;7.67;2.40;;;14.70;99.90;;;;;;5104292;23;20463;-54
2022/11/08 09:25:10;;;;;;;4.80;2.00;;;16.00;99.90;;;;;;5077901;28;20446;-54
2022/11/08 09:27:39;;;;;;;7.47;3.57;;;16.70;99.90;;;;;;5078127;28;20447;-51
2022/11/08 09:30:08;;;;;;;6.17;2.10;;;17.60;99.90;;;;;;5076622;28;20447;-49
2022/11/08 09:32:40;;;;;;;2.17;1.53;;;18.40;99.90;;;;;;5077983;28;20456;-54
2022/11/08 09:35:08;;;;;;;3.90;1.90;;;18.60;99.90;;;;;;5077697;28;20486;-55
2022/11/08 09:37:35;;;;;;;2.80;2.17;;;19.50;99.90;;;;;;5077531;28;20550;-48
2022/11/08 09:40:10;;;;;;;5.30;1.90;;;19.80;99.90;;;;;;5077560;28;20497;-57
2022/11/08 09:43:01;;;;;;;5.13;2.37;;;20.10;99.90;;;;;;5077317;28;20459;-55
2022/11/08 09:45:34;;;;;;;3.80;2.20;;;20.40;99.90;;;;;;5077847;28;20505;-49
2022/11/08 09:48:05;;;;;;;6.40;2.90;;;20.70;99.90;;;;;;5077412;28;20434;-46
2022/11/08 09:50:38;;;;;;;18.60;14.10;;;21.10;99.90;;;;;;5076854;28;20447;-44
2022/11/08 09:53:16;;;;;;;4.90;2.90;;;21.40;99.90;;;;;;5076927;28;20460;-47
2022/11/08 09:55:47;;;;;;;8.33;2.00;;;21.60;99.90;;;;;;5076906;28;20456;-46
2022/11/08 09:58:35;;;;;;;4.40;3.50;;;21.50;99.90;;;;;;5076903;28;20419;-47
2022/11/08 10:01:02;;;;;;;2.33;1.93;;;21.40;99.90;;;;;;5075152;28;21098;-47
2022/11/08 10:03:30;;;;;;;1.73;1.57;;;21.50;99.90;;;;;;5076877;28;20450;-52
2022/11/08 10:06:21;;;;;;;4.20;2.33;;;21.70;99.90;;;;;;5077055;28;20443;-48
2022/11/08 10:08:54;;;;;;;4.30;2.00;;;22.40;99.90;;;;;;5077127;28;20451;-52
2022/11/08 10:11:31;;;;;;;3.63;1.63;;;22.90;99.90;;;;;;5076552;28;20479;-49
2022/11/08 10:14:21;;;;;;;2.83;1.83;;;23.00;99.90;;;;;;5076588;28;20433;-46
2022/11/08 10:16:56;;;;;;;2.10;1.63;;;23.00;99.90;;;;;;5076234;28;20454;-49
2022/11/08 10:19:43;;;;;;;5.00;1.87;;;23.00;99.90;;;;;;5076863;28;20457;-51
2022/11/08 10:22:16;;;;;;;4.20;2.17;;;22.80;99.90;;;;;;5075815;28;20471;-47
2022/11/08 10:24:49;;;;;;;5.77;1.80;;;22.30;99.90;;;;;;5076491;28;20848;-52
2022/11/08 10:27:22;;;;;;;2.70;1.87;;;21.80;99.90;;;;;;5075742;28;20404;-52
2022/11/08 10:29:58;;;;;;;4.90;2.30;;;21.40;99.90;;;;;;5075735;28;20497;-46
2022/11/08 10:32:24;;;;;;;4.17;2.10;;;20.90;99.90;;;;;;5076068;28;20446;-45
2022/11/08 10:34:55;;;;;;;3.30;1.90;;;20.70;99.90;;;;;;5076197;28;20435;-47
2022/11/08 10:37:25;;;;;;;2.83;1.80;;;20.60;99.90;;;;;;5075636;28;20435;-52
2022/11/08 10:39:56;;;;;;;3.23;2.33;;;20.40;99.90;;;;;;5075809;28;20503;-50
2022/11/08 10:42:33;;;;;;;2.23;2.03;;;20.40;99.90;;;;;;5075718;28;20554;-52
2022/11/08 10:45:02;;;;;;;3.57;2.50;;;20.30;99.90;;;;;;5075657;28;20485;-53
2022/11/08 10:47:33;;;;;;;5.67;1.93;;;20.30;99.90;;;;;;5075939;28;20477;-51
2022/11/08 10:50:03;;;;;;;4.33;1.83;;;20.10;99.90;;;;;;5076156;28;20430;-47
2022/11/08 10:52:37;;;;;;;3.83;1.90;;;20.00;99.90;;;;;;5075215;28;20470;-56
2022/11/08 10:55:06;;;;;;;2.63;1.83;;;19.60;99.90;;;;;;5071372;28;20431;-56
2022/11/08 10:57:38;;;;;;;4.70;1.70;;;19.10;99.90;;;;;;5069732;28;20448;-45
2022/11/08 11:00:28;;;;;;;5.23;1.97;;;18.80;99.90;;;;;;5075240;28;20466;-48
2022/11/08 11:02:56;;;;;;;2.90;2.00;;;18.50;99.90;;;;;;5075320;28;20578;-46
2022/11/08 11:05:28;;;;;;;3.53;1.77;;;18.20;99.90;;;;;;5074932;28;20463;-51
2022/11/08 11:08:05;;;;;;;3.00;1.23;;;17.90;99.90;;;;;;5075488;28;20486;-43
2022/11/08 11:10:33;;;;;;;3.00;1.70;;;17.80;99.90;;;;;;5075841;28;20432;-49
2022/11/08 11:13:03;;;;;;;1.30;1.20;;;17.70;99.90;;;;;;5075856;28;20451;-51
2022/11/08 11:15:37;;;;;;;4.70;2.50;;;17.50;99.90;;;;;;5076658;28;20466;-46
2022/11/08 11:18:16;;;;;;;4.20;1.50;;;17.40;99.90;;;;;;5075593;28;20489;-52
2022/11/08 11:20:56;;;;;;;3.10;1.90;;;17.30;99.90;;;;;;5075504;28;20434;-49
2022/11/08 11:23:23;;;;;;;2.20;1.30;;;17.20;99.90;;;;;;5075405;28;20486;-53
2022/11/08 11:25:51;;;;;;;2.53;2.03;;;17.20;99.90;;;;;;5074822;28;20435;-46
2022/11/08 11:28:18;;;;;;;4.87;2.00;;;17.10;99.90;;;;;;5075122;28;20427;-49
2022/11/08 11:30:59;;;;;;;2.20;1.83;;;17.10;99.90;;;;;;5075634;28;20455;-44
2022/11/08 11:33:28;;;;;;;1.60;1.40;;;17.00;99.90;;;;;;5074848;28;20444;-47
2022/11/08 11:35:57;;;;;;;5.60;2.10;;;17.10;99.90;;;;;;5074893;28;20471;-46
2022/11/08 11:38:38;;;;;;;2.17;1.30;;;17.00;99.90;;;;;;5074772;28;20435;-51
2022/11/08 11:41:13;;;;;;;2.23;1.40;;;17.00;99.90;;;;;;5074350;28;20544;-50
2022/11/08 11:43:44;;;;;;;2.37;1.70;;;17.00;99.90;;;;;;5074681;28;20490;-49
2022/11/08 11:46:20;;;;;;;2.33;2.00;;;17.00;99.90;;;;;;5074684;28;20439;-48
2022/11/08 11:48:53;;;;;;;2.60;1.87;;;17.00;99.90;;;;;;5072972;28;20455;-53
2022/11/08 11:51:21;;;;;;;2.20;1.70;;;17.00;99.90;;;;;;5064693;28;20481;-45
2022/11/08 11:53:48;;;;;;;10.13;2.67;;;17.00;99.90;;;;;;5074418;28;20447;-46
2022/11/08 11:56:48;;;;;;;3.10;1.50;;;16.90;99.90;;;;;;5074764;28;20491;-52
2022/11/08 11:59:55;;;;;;;3.77;1.73;;;16.90;99.90;;;;;;5074794;28;20419;-49
2022/11/08 12:03:10;;;;;;;1.63;1.47;;;16.90;99.90;;;;;;5036507;28;20478;-53
2022/11/08 12:06:05;;;;;;;4.63;2.00;;;17.00;99.90;;;;;;5075356;28;20431;-49
2022/11/08 12:08:48;;;;;;;4.30;1.73;;;17.00;99.90;;;;;;5075198;28;20427;-42
2022/11/08 12:11:32;;;;;;;3.90;1.70;;;17.10;99.90;;;;;;5074997;28;20454;-50
2022/11/08 12:14:19;;;;;;;2.40;1.60;;;17.20;99.90;;;;;;5074531;28;20490;-54
2022/11/08 12:16:56;;;;;;;2.67;1.50;;;17.30;99.90;;;;;;5074789;28;20474;-55
2022/11/08 12:19:34;;;;;;;1.77;1.43;;;17.30;99.90;;;;;;5074849;28;20467;-54
2022/11/08 12:22:22;;;;;;;1.57;1.17;;;17.30;99.90;;;;;;5074527;28;20470;-49
2022/11/08 12:24:58;;;;;;;2.10;1.70;;;17.30;99.90;;;;;;5077842;28;20513;-52
2022/11/08 12:27:39;;;;;;;2.60;1.70;;;17.30;99.90;;;;;;5078973;28;20428;-43
2022/11/08 12:30:11;;;;;;;3.10;2.03;;;17.30;99.90;;;;;;5078426;28;20432;-47
2022/11/08 12:33:12;;;;;;;6.13;2.10;;;17.20;99.90;;;;;;5078576;28;20450;-53
2022/11/08 12:35:47;;;;;;;5.07;2.00;;;17.10;99.90;;;;;;5078130;28;20475;-53
2022/11/08 12:38:28;;;;;;;1.53;1.43;;;17.20;99.90;;;;;;5078319;28;20509;-52
2022/11/08 12:41:04;;;;;;;1.80;1.20;;;17.30;99.90;;;;;;5078892;28;20443;-52
2022/11/08 12:43:57;;;;;;;1.73;1.50;;;17.30;99.90;;;;;;5078906;28;20482;-49
2022/11/08 12:46:25;;;;;;;3.57;1.30;;;17.40;99.90;;;;;;5079143;28;20431;-49
2022/11/08 12:49:05;;;;;;;1.83;1.50;;;17.40;99.90;;;;;;5078230;28;20470;-44
2022/11/08 12:51:42;;;;;;;2.20;1.30;;;17.40;99.90;;;;;;5078401;28;20423;-45
2022/11/08 12:54:21;;;;;;;3.00;1.83;;;17.40;99.90;;;;;;5067843;28;20453;-47
2022/11/08 12:56:51;;;;;;;1.93;1.50;;;17.50;99.90;;;;;;5077717;28;20429;-46
2022/11/08 12:59:22;;;;;;;2.70;1.80;;;17.40;99.90;;;;;;5078293;28;20894;-49
2022/11/08 13:01:50;;;;;;;2.53;1.30;;;17.40;99.90;;;;;;5077393;28;20462;-51
2022/11/08 13:04:30;;;;;;;1.40;1.30;;;17.40;99.90;;;;;;5077876;28;20442;-48
2022/11/08 13:07:02;;;;;;;4.87;1.77;;;17.50;99.90;;;;;;5077801;28;20439;-46
2022/11/08 13:09:42;;;;;;;2.30;1.37;;;17.50;99.90;;;;;;5077562;28;20501;-50
2022/11/08 13:12:36;;;;;;;2.20;1.53;;;17.40;99.90;;;;;;5077653;28;20475;-51
2022/11/08 13:15:04;;;;;;;1.87;1.30;;;17.40;99.90;;;;;;5077946;28;20471;-45
2022/11/08 13:17:31;;;;;;;9.60;5.60;;;17.40;99.90;;;;;;5077449;28;20443;-48
2022/11/08 13:20:01;;;;;;;9.83;2.20;;;17.40;99.90;;;;;;5077451;28;21010;-46
2022/11/08 13:22:43;;;;;;;4.97;1.90;;;17.40;99.90;;;;;;5077444;28;20505;-47
2022/11/08 13:25:39;;;;;;;5.50;1.60;;;17.30;99.90;;;;;;5077240;28;20431;-49